Time;durP1;ratioP1;P1;durP2;ratioP2;P2;SDS_P1;SDS_P2;PMS_P1;PMS_P2;Temp;Humidity;BMP_temperature;BMP_pressure;BME280_temperature;BME280_humidity;BME280_pressure;Samples;Min_cycle;Max_cycle;Signal;HPM_P1;HPM_P2
2023/05/30 00:01:57;;;;;;;0.50;0.40;;;11.40;99.90;;;;;;5035852;28;20298;-80
2023/05/30 00:04:24;;;;;;;0.50;0.40;;;11.30;99.90;;;;;;5035708;28;20241;-79
2023/05/30 00:06:51;;;;;;;0.50;0.40;;;11.30;99.90;;;;;;5035143;28;20203;-79
2023/05/30 00:09:19;;;;;;;0.50;0.40;;;11.20;99.90;;;;;;5035693;28;20277;-79
2023/05/30 00:11:46;;;;;;;0.60;0.60;;;11.00;99.90;;;;;;5035688;28;20623;-79
2023/05/30 00:14:12;;;;;;;0.50;0.40;;;11.00;99.90;;;;;;5035855;28;20195;-79
2023/05/30 00:16:41;;;;;;;0.50;0.40;;;11.00;99.90;;;;;;5035967;28;20199;-79
2023/05/30 00:19:08;;;;;;;0.50;0.40;;;11.00;99.90;;;;;;5035318;28;20309;-79
2023/05/30 00:21:35;;;;;;;0.50;0.40;;;11.10;99.90;;;;;;5034855;28;20298;-79
2023/05/30 00:24:02;;;;;;;0.50;0.40;;;11.00;99.90;;;;;;5035117;28;20223;-79
2023/05/30 00:26:28;;;;;;;0.50;0.40;;;11.00;99.90;;;;;;5035695;28;20210;-79
2023/05/30 00:28:55;;;;;;;0.50;0.40;;;10.90;99.90;;;;;;5034938;28;20254;-79
2023/05/30 00:31:23;;;;;;;0.50;0.40;;;11.00;99.90;;;;;;5035719;28;20817;-80
2023/05/30 00:33:51;;;;;;;0.50;0.40;;;10.90;99.90;;;;;;5034709;28;20206;-79
2023/05/30 00:36:19;;;;;;;0.60;0.60;;;10.90;99.90;;;;;;5035338;28;20203;-79
2023/05/30 00:38:46;;;;;;;0.50;0.40;;;10.80;99.90;;;;;;5034964;28;20230;-78
2023/05/30 00:41:12;;;;;;;0.50;0.40;;;10.80;99.90;;;;;;5035655;28;20199;-80
2023/05/30 00:43:39;;;;;;;0.50;0.40;;;10.80;99.90;;;;;;5035040;28;20222;-79
2023/05/30 00:46:10;;;;;;;2.45;1.40;;;10.70;99.90;;;;;;5034697;28;20199;-79
2023/05/30 00:48:36;;;;;;;13.93;4.85;;;10.60;99.90;;;;;;5034901;28;20254;-80
2023/05/30 00:51:08;;;;;;;0.50;0.40;;;10.50;99.90;;;;;;5034914;28;20205;-79
2023/05/30 00:53:35;;;;;;;0.50;0.40;;;10.50;99.90;;;;;;5035252;28;20209;-79
2023/05/30 00:56:02;;;;;;;15.82;0.93;;;10.40;99.90;;;;;;5034359;28;20199;-79
2023/05/30 00:58:29;;;;;;;0.50;0.40;;;10.30;99.90;;;;;;5035003;28;20242;-79
2023/05/30 01:00:56;;;;;;;0.50;0.40;;;10.30;99.90;;;;;;5034780;28;20725;-79
2023/05/30 01:03:27;;;;;;;0.50;0.40;;;10.20;99.90;;;;;;5034218;28;20630;-80
2023/05/30 01:05:54;;;;;;;0.50;0.40;;;10.20;99.90;;;;;;5033554;28;20576;-79
2023/05/30 01:08:23;;;;;;;0.50;0.40;;;10.20;99.90;;;;;;5034683;28;20223;-79
2023/05/30 01:10:59;;;;;;;0.50;0.40;;;10.10;99.90;;;;;;5034050;28;20199;-79
2023/05/30 01:13:32;;;;;;;0.68;0.68;;;10.10;99.90;;;;;;5034991;28;20198;-79
2023/05/30 01:16:05;;;;;;;0.50;0.40;;;10.00;99.90;;;;;;5034234;28;20230;-79
2023/05/30 01:18:38;;;;;;;0.50;0.40;;;10.00;99.90;;;;;;5034733;28;20219;-79
2023/05/30 01:21:10;;;;;;;0.50;0.40;;;10.00;99.90;;;;;;5034225;28;20294;-79
2023/05/30 01:24:07;;;;;;;0.50;0.40;;;10.00;99.90;;;;;;5034241;28;20210;-79
2023/05/30 01:26:53;;;;;;;2.13;1.95;;;10.00;99.90;;;;;;5023970;28;20231;-79
2023/05/30 01:29:24;;;;;;;0.50;0.40;;;10.10;99.90;;;;;;5020237;28;20516;-79
2023/05/30 01:31:52;;;;;;;0.50;0.40;;;10.00;99.90;;;;;;5034321;28;20198;-79
2023/05/30 01:34:20;;;;;;;0.50;0.40;;;9.90;99.90;;;;;;5034215;28;20628;-78
2023/05/30 01:36:47;;;;;;;0.50;0.40;;;9.90;99.90;;;;;;5034138;28;20192;-79
2023/05/30 01:39:14;;;;;;;0.80;0.80;;;9.90;99.90;;;;;;5018409;28;20390;-79
2023/05/30 01:41:49;;;;;;;0.50;0.40;;;10.00;99.90;;;;;;5035564;28;20786;-79
2023/05/30 01:44:26;;;;;;;0.50;0.40;;;10.00;99.90;;;;;;5018798;28;20221;-79
2023/05/30 01:47:00;;;;;;;0.50;0.40;;;9.90;99.90;;;;;;5034053;28;20556;-79
2023/05/30 01:49:33;;;;;;;0.50;0.40;;;9.90;99.90;;;;;;5033184;28;20297;-79
2023/05/30 01:52:02;;;;;;;0.50;0.40;;;9.80;99.90;;;;;;5032916;28;20227;-79
2023/05/30 01:54:31;;;;;;;0.50;0.40;;;9.80;99.90;;;;;;5033304;28;20199;-79
2023/05/30 01:57:06;;;;;;;0.50;0.40;;;9.70;99.90;;;;;;5032902;28;20234;-79
2023/05/30 01:59:36;;;;;;;0.63;0.52;;;9.70;99.90;;;;;;5033397;28;20210;-76
2023/05/30 02:02:03;;;;;;;0.60;0.50;;;9.70;99.90;;;;;;5033551;28;20198;-79
2023/05/30 02:04:31;;;;;;;0.50;0.40;;;9.60;99.90;;;;;;5034149;28;20211;-79
2023/05/30 02:06:58;;;;;;;0.50;0.40;;;9.70;99.90;;;;;;5033513;28;20733;-79
2023/05/30 02:09:26;;;;;;;0.50;0.50;;;9.70;99.90;;;;;;5033997;28;20219;-79
2023/05/30 02:11:53;;;;;;;0.50;0.40;;;9.70;99.90;;;;;;5034072;28;20195;-79
2023/05/30 02:14:19;;;;;;;0.50;0.40;;;9.70;99.90;;;;;;5033826;28;20192;-79
2023/05/30 02:16:48;;;;;;;0.50;0.40;;;9.60;99.90;;;;;;5036636;28;20199;-79
2023/05/30 02:19:14;;;;;;;0.63;0.63;;;9.60;99.90;;;;;;5037108;28;20243;-79
2023/05/30 02:21:41;;;;;;;0.50;0.40;;;9.50;99.90;;;;;;5037390;28;20199;-79
2023/05/30 02:24:08;;;;;;;0.50;0.40;;;9.50;99.90;;;;;;5037044;28;20213;-79
2023/05/30 02:26:36;;;;;;;0.50;0.40;;;9.50;99.90;;;;;;5037611;28;20199;-79
2023/05/30 02:29:03;;;;;;;0.50;0.40;;;9.40;99.90;;;;;;5037319;28;20310;-79
2023/05/30 02:31:30;;;;;;;0.60;0.60;;;9.40;99.90;;;;;;5037461;28;20305;-79
2023/05/30 02:33:58;;;;;;;0.50;0.40;;;9.30;99.90;;;;;;5036570;28;20191;-79
2023/05/30 02:36:25;;;;;;;23.83;1.85;;;9.30;99.90;;;;;;5036975;28;20195;-79
2023/05/30 02:38:52;;;;;;;0.50;0.40;;;9.30;99.90;;;;;;5036989;28;20251;-79
2023/05/30 02:41:18;;;;;;;1.80;1.70;;;9.30;99.90;;;;;;5036790;28;20634;-79
2023/05/30 02:43:45;;;;;;;0.50;0.40;;;9.20;99.90;;;;;;5036384;28;20222;-79
2023/05/30 02:46:13;;;;;;;1.15;1.15;;;9.20;99.90;;;;;;5037030;28;20223;-78
2023/05/30 02:48:39;;;;;;;0.50;0.40;;;9.20;99.90;;;;;;5036017;28;20220;-79
2023/05/30 02:51:08;;;;;;;0.50;0.40;;;9.10;99.90;;;;;;5036345;28;20488;-79
2023/05/30 02:53:34;;;;;;;0.50;0.40;;;9.10;99.90;;;;;;5097905;22;20311;-81
2023/05/30 02:56:01;;;;;;;0.50;0.40;;;9.20;99.90;;;;;;5059759;28;20194;-82
2023/05/30 02:58:28;;;;;;;0.50;0.50;;;9.20;99.90;;;;;;5064553;28;20198;-82
2023/05/30 03:00:55;;;;;;;0.50;0.50;;;9.20;99.90;;;;;;5064769;28;20633;-80
2023/05/30 03:03:24;;;;;;;0.50;0.40;;;9.30;99.90;;;;;;5076546;28;20253;-83
2023/05/30 03:05:51;;;;;;;0.50;0.40;;;9.40;99.90;;;;;;5076561;28;20221;-81
2023/05/30 03:08:20;;;;;;;0.50;0.40;;;9.50;99.90;;;;;;5076059;28;20284;-81
2023/05/30 03:10:46;;;;;;;0.50;0.40;;;9.60;99.90;;;;;;5076410;28;20288;-81
2023/05/30 03:13:13;;;;;;;0.60;0.60;;;9.70;99.90;;;;;;5076017;28;20240;-82
2023/05/30 03:15:40;;;;;;;0.50;0.40;;;9.70;99.90;;;;;;5075622;28;20281;-83
2023/05/30 03:18:07;;;;;;;0.50;0.40;;;9.80;99.90;;;;;;5075370;28;20198;-82
2023/05/30 03:20:34;;;;;;;0.50;0.40;;;9.90;99.90;;;;;;5075347;28;20223;-82
2023/05/30 03:23:01;;;;;;;0.50;0.40;;;10.00;99.90;;;;;;5075844;28;20275;-82
2023/05/30 03:25:29;;;;;;;0.50;0.40;;;10.10;99.90;;;;;;5075019;28;20712;-80
2023/05/30 03:27:56;;;;;;;0.50;0.40;;;10.10;99.90;;;;;;5073782;28;20281;-80
2023/05/30 03:30:26;;;;;;;0.50;0.40;;;10.20;99.90;;;;;;5075208;28;20229;-80
2023/05/30 03:32:56;;;;;;;0.55;0.52;;;10.10;99.90;;;;;;5075420;28;20589;-81
2023/05/30 03:35:23;;;;;;;0.70;0.70;;;10.20;99.90;;;;;;5074872;28;20217;-81
2023/05/30 03:37:50;;;;;;;0.60;0.52;;;10.20;99.90;;;;;;5075550;28;20198;-79
2023/05/30 03:40:17;;;;;;;0.50;0.40;;;10.20;99.90;;;;;;5075477;28;20222;-81
2023/05/30 03:42:45;;;;;;;0.50;0.40;;;10.30;99.90;;;;;;5076372;28;20689;-80
2023/05/30 03:45:13;;;;;;;0.50;0.40;;;10.30;99.90;;;;;;5076116;28;20275;-81
2023/05/30 03:47:39;;;;;;;0.50;0.40;;;10.40;99.90;;;;;;5075478;28;20673;-82
2023/05/30 03:50:07;;;;;;;0.88;0.68;;;10.40;99.90;;;;;;5075139;28;20202;-79
2023/05/30 03:52:34;;;;;;;0.50;0.40;;;10.50;99.90;;;;;;5074811;28;20230;-81
2023/05/30 03:55:00;;;;;;;0.70;0.50;;;10.50;99.90;;;;;;5074584;28;20251;-80
2023/05/30 03:57:27;;;;;;;0.50;0.40;;;10.50;99.90;;;;;;5075057;28;20638;-81
2023/05/30 03:59:55;;;;;;;9.25;1.25;;;10.50;99.90;;;;;;5075060;28;20208;-80
2023/05/30 04:02:22;;;;;;;0.50;0.40;;;10.50;99.90;;;;;;5074926;28;20305;-81
2023/05/30 04:04:49;;;;;;;1.05;0.95;;;10.60;99.90;;;;;;5075233;28;20302;-79
2023/05/30 04:07:16;;;;;;;0.50;0.40;;;10.60;99.90;;;;;;5074517;28;20585;-81
2023/05/30 04:09:43;;;;;;;0.50;0.40;;;10.60;99.90;;;;;;5073920;28;20222;-81
2023/05/30 04:12:10;;;;;;;3.25;1.85;;;10.60;99.90;;;;;;5073914;28;20229;-80
2023/05/30 04:14:37;;;;;;;0.85;0.85;;;10.70;99.90;;;;;;5073951;28;20194;-79
2023/05/30 04:17:06;;;;;;;0.50;0.40;;;10.70;99.90;;;;;;5074145;28;20194;-80
2023/05/30 04:19:33;;;;;;;0.50;0.40;;;10.70;99.90;;;;;;5074283;28;20190;-80
2023/05/30 04:22:00;;;;;;;0.50;0.40;;;10.80;99.90;;;;;;5074478;28;20234;-80
2023/05/30 04:24:29;;;;;;;0.50;0.40;;;10.80;99.90;;;;;;5074413;28;20657;-80
2023/05/30 04:26:57;;;;;;;0.50;0.40;;;10.80;99.90;;;;;;5073996;28;20689;-78
2023/05/30 04:29:24;;;;;;;0.50;0.40;;;10.90;99.90;;;;;;5074628;28;20194;-81
2023/05/30 04:31:51;;;;;;;0.50;0.40;;;10.80;99.90;;;;;;5074737;28;20204;-81
2023/05/30 04:34:19;;;;;;;3.53;1.15;;;10.90;99.90;;;;;;5074345;28;20724;-81
2023/05/30 04:36:46;;;;;;;0.60;0.52;;;10.80;99.90;;;;;;5073659;28;20204;-81
2023/05/30 04:39:13;;;;;;;0.50;0.40;;;10.90;99.90;;;;;;5073985;28;20202;-80
2023/05/30 04:41:40;;;;;;;0.50;0.40;;;10.90;99.90;;;;;;5074713;28;20225;-80
2023/05/30 04:44:07;;;;;;;5.05;0.93;;;11.00;99.90;;;;;;5072946;28;20228;-81
2023/05/30 04:46:35;;;;;;;1.30;1.13;;;10.90;99.90;;;;;;5073909;28;20216;-80
2023/05/30 04:49:02;;;;;;;0.50;0.40;;;10.90;99.90;;;;;;5073665;28;20244;-79
2023/05/30 04:51:32;;;;;;;0.50;0.40;;;10.90;99.90;;;;;;5073417;28;20198;-80
2023/05/30 04:54:00;;;;;;;0.50;0.40;;;10.90;99.90;;;;;;5073782;28;20210;-81
2023/05/30 04:56:27;;;;;;;0.50;0.40;;;10.80;99.90;;;;;;5057473;28;20186;-81
2023/05/30 04:58:54;;;;;;;1.00;1.00;;;10.90;99.90;;;;;;5073479;28;20194;-80
2023/05/30 05:01:23;;;;;;;0.50;0.40;;;10.90;99.90;;;;;;5073443;28;20201;-81
2023/05/30 05:03:50;;;;;;;0.50;0.40;;;11.00;99.90;;;;;;5073382;28;20248;-79
2023/05/30 05:06:17;;;;;;;0.50;0.40;;;11.00;99.90;;;;;;5073553;28;20213;-79
2023/05/30 05:08:45;;;;;;;0.50;0.40;;;11.10;99.90;;;;;;5073166;28;20200;-81
2023/05/30 05:11:13;;;;;;;0.50;0.47;;;11.00;99.90;;;;;;5073253;28;20284;-80
2023/05/30 05:13:40;;;;;;;1.85;1.75;;;11.00;99.90;;;;;;5073900;28;20238;-81
2023/05/30 05:16:07;;;;;;;0.50;0.40;;;11.10;99.90;;;;;;5073415;28;20227;-79
2023/05/30 05:18:33;;;;;;;0.50;0.40;;;11.10;99.90;;;;;;5073673;28;20202;-80
2023/05/30 05:21:00;;;;;;;0.50;0.40;;;11.20;99.90;;;;;;5073749;28;20194;-84
2023/05/30 05:23:28;;;;;;;0.50;0.40;;;11.20;99.90;;;;;;5057423;28;20220;-80
2023/05/30 05:25:57;;;;;;;0.50;0.40;;;11.30;99.90;;;;;;5074215;28;20214;-82
2023/05/30 05:28:24;;;;;;;1.50;0.70;;;11.30;99.90;;;;;;5074442;28;20205;-81
2023/05/30 05:30:51;;;;;;;0.70;0.70;;;11.30;99.90;;;;;;5074387;28;20258;-81
2023/05/30 05:33:17;;;;;;;0.50;0.40;;;11.30;99.90;;;;;;5073949;28;20859;-81
2023/05/30 05:35:46;;;;;;;0.50;0.40;;;11.40;99.90;;;;;;5073410;28;20701;-80
2023/05/30 05:38:13;;;;;;;0.50;0.40;;;11.40;99.90;;;;;;5073780;28;20218;-80
2023/05/30 05:40:40;;;;;;;3.75;0.85;;;11.50;99.90;;;;;;5074219;28;20276;-81
2023/05/30 05:43:08;;;;;;;0.50;0.40;;;11.50;99.90;;;;;;5074266;28;20788;-79
2023/05/30 05:45:35;;;;;;;0.50;0.40;;;11.70;99.90;;;;;;5069956;28;20215;-80
2023/05/30 05:48:02;;;;;;;0.63;0.63;;;11.80;99.90;;;;;;5070027;28;20664;-82
2023/05/30 05:50:29;;;;;;;1.45;1.00;;;11.90;99.90;;;;;;5075158;28;20187;-80
2023/05/30 05:52:55;;;;;;;0.50;0.50;;;12.10;99.90;;;;;;5072598;28;20743;-79
2023/05/30 05:55:22;;;;;;;0.87;0.50;;;12.20;99.90;;;;;;5062783;28;20229;-81
2023/05/30 05:57:50;;;;;;;0.50;0.40;;;12.30;99.90;;;;;;5076620;28;20472;-79
2023/05/30 06:00:19;;;;;;;0.70;0.70;;;12.40;99.90;;;;;;5076886;28;20693;-80
2023/05/30 06:02:45;;;;;;;0.70;0.70;;;12.60;99.90;;;;;;5076831;28;20209;-81
2023/05/30 06:05:12;;;;;;;0.50;0.40;;;12.70;99.90;;;;;;5075998;28;20518;-79
2023/05/30 06:07:39;;;;;;;0.60;0.60;;;12.80;99.90;;;;;;5076825;28;20200;-81
2023/05/30 06:10:07;;;;;;;1.40;1.13;;;12.90;99.90;;;;;;5076620;28;20444;-79
2023/05/30 06:12:34;;;;;;;0.60;0.57;;;13.00;99.90;;;;;;5076631;28;20484;-79
2023/05/30 06:15:01;;;;;;;0.63;0.50;;;13.20;99.90;;;;;;5076148;28;20190;-81
2023/05/30 06:17:30;;;;;;;0.50;0.40;;;13.40;99.90;;;;;;5077128;28;20954;-78
2023/05/30 06:19:57;;;;;;;0.50;0.40;;;13.80;99.90;;;;;;5077105;28;20474;-79
2023/05/30 06:22:23;;;;;;;0.50;0.40;;;14.10;99.90;;;;;;5076153;28;20503;-81
2023/05/30 06:24:50;;;;;;;0.50;0.40;;;14.30;99.90;;;;;;5076780;28;20440;-80
2023/05/30 06:27:17;;;;;;;0.50;0.40;;;14.20;99.90;;;;;;5077661;28;20471;-80
2023/05/30 06:29:44;;;;;;;1.63;1.53;;;14.10;99.90;;;;;;5078421;28;20443;-81
2023/05/30 06:32:11;;;;;;;0.50;0.40;;;14.10;99.90;;;;;;5085266;28;20997;-78
2023/05/30 06:34:39;;;;;;;0.50;0.50;;;14.10;99.90;;;;;;5086691;28;20467;-82
2023/05/30 06:37:06;;;;;;;0.60;0.43;;;14.80;99.90;;;;;;5079674;28;20471;-79
2023/05/30 06:39:33;;;;;;;2.73;1.33;;;16.50;99.90;;;;;;5077830;28;20460;-79
2023/05/30 06:42:02;;;;;;;0.50;0.50;;;17.70;99.90;;;;;;5076279;28;20528;-80
2023/05/30 06:44:28;;;;;;;0.60;0.50;;;18.70;99.90;;;;;;5077070;28;20436;-82
2023/05/30 06:46:56;;;;;;;40.07;3.17;;;19.20;96.60;;;;;;5077605;28;20562;-79
2023/05/30 06:49:23;;;;;;;0.50;0.40;;;20.10;92.60;;;;;;5076304;28;20947;-80
2023/05/30 06:51:51;;;;;;;0.50;0.30;;;20.60;87.00;;;;;;5076075;28;20470;-78
2023/05/30 06:54:18;;;;;;;0.50;0.30;;;21.00;85.80;;;;;;5076106;28;20508;-80
2023/05/30 06:56:45;;;;;;;0.80;0.70;;;21.60;83.10;;;;;;5076386;28;20924;-81
2023/05/30 06:59:12;;;;;;;0.50;0.30;;;22.30;79.10;;;;;;5076725;28;20440;-80
2023/05/30 07:01:39;;;;;;;1.03;0.50;;;22.50;75.70;;;;;;5075346;28;20446;-79
2023/05/30 07:04:05;;;;;;;0.70;0.57;;;22.90;71.20;;;;;;5076182;28;20495;-80
2023/05/30 07:06:32;;;;;;;0.50;0.43;;;22.50;70.30;;;;;;5075941;28;20515;-81
2023/05/30 07:09:00;;;;;;;0.50;0.40;;;22.00;74.40;;;;;;5076935;28;20449;-82
2023/05/30 07:11:27;;;;;;;1.00;0.40;;;22.00;73.70;;;;;;5076419;28;20536;-80
2023/05/30 07:13:54;;;;;;;0.50;0.40;;;22.30;72.90;;;;;;5075910;28;20499;-79
2023/05/30 07:16:21;;;;;;;0.60;0.50;;;22.70;72.60;;;;;;5083300;28;20509;-79
2023/05/30 07:18:48;;;;;;;0.60;0.50;;;22.80;70.70;;;;;;5087770;28;20456;-79
2023/05/30 07:21:14;;;;;;;0.93;0.93;;;23.40;70.50;;;;;;5086601;28;20464;-83
2023/05/30 07:23:41;;;;;;;1.80;1.70;;;24.10;70.30;;;;;;5077495;28;20520;-81
2023/05/30 07:26:10;;;;;;;0.50;0.40;;;24.80;65.90;;;;;;5076665;28;20503;-82
2023/05/30 07:28:36;;;;;;;1.17;0.70;;;25.40;64.50;;;;;;5068974;28;20459;-85
2023/05/30 07:31:03;;;;;;;0.50;0.30;;;26.20;63.00;;;;;;5078482;28;20875;-84
2023/05/30 07:33:31;;;;;;;0.50;0.40;;;26.50;60.70;;;;;;5076356;28;20464;-82
2023/05/30 07:35:57;;;;;;;0.50;0.40;;;26.60;60.80;;;;;;5059249;28;20514;-79
2023/05/30 07:38:24;;;;;;;0.50;0.30;;;26.80;57.60;;;;;;5065685;28;20464;-80
2023/05/30 07:40:51;;;;;;;2.73;0.70;;;26.70;57.50;;;;;;5076076;28;20424;-84
2023/05/30 07:43:20;;;;;;;0.50;0.30;;;26.70;56.50;;;;;;5076511;28;20974;-82
2023/05/30 07:45:46;;;;;;;0.50;0.30;;;27.10;57.50;;;;;;5076859;28;20503;-82
2023/05/30 07:48:13;;;;;;;0.50;0.30;;;27.20;56.20;;;;;;5075964;28;20826;-81
2023/05/30 07:50:40;;;;;;;0.60;0.43;;;27.00;55.50;;;;;;5076375;28;20961;-84
2023/05/30 07:53:07;;;;;;;0.60;0.40;;;27.00;55.80;;;;;;5076509;28;20554;-80
2023/05/30 07:55:34;;;;;;;0.50;0.30;;;27.10;56.70;;;;;;5076663;28;20523;-82
2023/05/30 07:58:00;;;;;;;0.60;0.40;;;27.30;57.20;;;;;;5077354;28;20471;-83
2023/05/30 08:00:29;;;;;;;0.50;0.40;;;27.70;55.40;;;;;;5077009;28;20495;-82
2023/05/30 08:02:56;;;;;;;0.50;0.30;;;28.20;55.50;;;;;;5076271;28;20459;-81
2023/05/30 08:05:22;;;;;;;0.50;0.30;;;28.50;53.20;;;;;;5076068;28;21058;-84
2023/05/30 08:07:49;;;;;;;0.50;0.40;;;29.00;54.00;;;;;;5076314;28;20468;-83
2023/05/30 08:10:16;;;;;;;3.70;0.83;;;28.70;52.60;;;;;;5076271;28;20906;-81
2023/05/30 08:12:43;;;;;;;0.50;0.30;;;28.80;53.10;;;;;;5075454;28;20781;-84
2023/05/30 08:15:10;;;;;;;0.50;0.30;;;29.50;53.80;;;;;;5075617;28;20470;-82
2023/05/30 08:17:41;;;;;;;0.50;0.30;;;29.40;52.30;;;;;;5076025;28;20508;-82
2023/05/30 08:20:09;;;;;;;0.50;0.30;;;29.00;52.40;;;;;;5077275;28;20441;-83
2023/05/30 08:22:36;;;;;;;0.70;0.70;;;29.20;53.10;;;;;;5076414;28;20455;-84
2023/05/30 08:25:03;;;;;;;0.50;0.47;;;28.50;53.10;;;;;;5077356;28;20437;-82
2023/05/30 08:27:31;;;;;;;0.50;0.30;;;28.70;54.00;;;;;;5077212;28;20530;-83
2023/05/30 08:29:59;;;;;;;0.50;0.30;;;29.50;53.80;;;;;;5076938;28;20471;-81
2023/05/30 08:32:27;;;;;;;1.93;1.83;;;30.00;53.20;;;;;;5079358;28;20482;-84
2023/05/30 08:34:55;;;;;;;3.07;2.87;;;30.30;51.50;;;;;;5077684;28;20880;-84
2023/05/30 08:37:22;;;;;;;0.50;0.30;;;30.70;51.20;;;;;;5077389;28;20436;-83
2023/05/30 08:39:49;;;;;;;0.50;0.40;;;31.20;49.80;;;;;;5075869;28;20472;-82
2023/05/30 08:42:16;;;;;;;0.50;0.30;;;30.30;49.20;;;;;;5076264;28;21223;-82
2023/05/30 08:44:43;;;;;;;1.53;1.13;;;30.40;51.00;;;;;;5076976;28;20460;-82
2023/05/30 08:47:12;;;;;;;0.80;0.80;;;30.60;51.10;;;;;;5076664;28;20555;-82
2023/05/30 08:49:42;;;;;;;0.50;0.30;;;30.90;49.30;;;;;;5076512;28;20440;-82
2023/05/30 08:52:13;;;;;;;0.53;0.40;;;31.10;50.00;;;;;;5076760;28;20441;-84
2023/05/30 08:54:48;;;;;;;0.50;0.30;;;31.00;49.50;;;;;;5060805;28;20432;-83
2023/05/30 08:57:21;;;;;;;0.50;0.30;;;31.70;49.10;;;;;;5102271;22;21034;-79
2023/05/30 08:59:50;;;;;;;0.50;0.50;;;31.10;47.90;;;;;;5040254;28;20535;-79
2023/05/30 09:02:20;;;;;;;0.70;0.50;;;31.00;47.90;;;;;;5053368;28;20437;-80
2023/05/30 09:04:48;;;;;;;0.50;0.30;;;31.80;48.10;;;;;;5043845;28;20816;-80
2023/05/30 09:07:16;;;;;;;0.60;0.40;;;31.50;47.90;;;;;;5050319;28;20477;-80
2023/05/30 09:09:45;;;;;;;0.50;0.30;;;31.10;47.60;;;;;;5038943;28;20528;-80
2023/05/30 09:12:12;;;;;;;0.50;0.30;;;31.70;48.20;;;;;;5054796;28;20446;-80
2023/05/30 09:14:39;;;;;;;0.50;0.30;;;32.10;48.50;;;;;;5054176;28;21025;-79
2023/05/30 09:17:07;;;;;;;0.50;0.30;;;32.80;45.70;;;;;;5054231;28;20819;-79
2023/05/30 09:19:37;;;;;;;0.40;0.30;;;32.90;46.90;;;;;;5054100;28;20446;-78
2023/05/30 09:22:06;;;;;;;0.43;0.30;;;32.60;46.90;;;;;;5055784;28;20441;-78
2023/05/30 09:25:00;;;;;;;2.10;1.80;;;32.70;46.90;;;;;;5055594;28;20449;-79
2023/05/30 09:27:31;;;;;;;0.50;0.30;;;31.90;46.00;;;;;;5059458;28;20534;-78
2023/05/30 09:29:57;;;;;;;0.50;0.40;;;32.20;47.40;;;;;;5059080;28;20843;-78
2023/05/30 09:32:34;;;;;;;0.80;0.80;;;32.40;46.20;;;;;;5057671;28;20448;-78
2023/05/30 09:35:04;;;;;;;0.50;0.30;;;32.60;46.20;;;;;;5057736;28;20514;-78
2023/05/30 09:37:37;;;;;;;13.10;1.90;;;32.70;45.60;;;;;;5060483;28;20460;-78
2023/05/30 09:40:07;;;;;;;0.50;0.40;;;32.20;44.90;;;;;;5058139;28;20444;-78
2023/05/30 09:42:42;;;;;;;0.50;0.30;;;31.90;47.10;;;;;;5057648;28;20441;-78
2023/05/30 09:45:11;;;;;;;4.50;1.10;;;32.20;45.60;;;;;;5059979;28;20523;-77
2023/05/30 09:47:42;;;;;;;0.50;0.30;;;31.80;46.50;;;;;;5062565;28;20505;-81
2023/05/30 09:50:11;;;;;;;2.03;1.93;;;31.70;46.10;;;;;;5067384;28;20444;-81
2023/05/30 09:52:38;;;;;;;0.80;0.50;;;32.00;45.70;;;;;;5061408;28;20441;-79
2023/05/30 09:55:08;;;;;;;58.43;13.80;;;31.80;46.80;;;;;;5065331;28;20504;-79
2023/05/30 09:57:37;;;;;;;41.93;20.47;;;32.10;48.00;;;;;;5061890;28;20459;-82
2023/05/30 10:00:11;;;;;;;1.23;1.13;;;31.50;46.90;;;;;;5062586;28;20499;-80
2023/05/30 10:06:16;;;;;;;0.50;0.37;;;31.80;47.40;;;;;;5155973;27;21072;-81
2023/05/30 10:08:45;;;;;;;1.60;1.03;;;31.80;46.50;;;;;;5143630;27;20468;-82
2023/05/30 10:11:13;;;;;;;0.50;0.30;;;31.50;46.40;;;;;;5149448;27;20497;-83
2023/05/30 10:13:41;;;;;;;0.43;0.30;;;31.50;46.50;;;;;;5154051;27;20429;-81
2023/05/30 10:16:12;;;;;;;0.77;0.77;;;32.10;47.40;;;;;;5151527;27;20826;-81
2023/05/30 10:18:43;;;;;;;0.50;0.40;;;32.10;46.60;;;;;;5147564;27;20448;-80
2023/05/30 10:21:13;;;;;;;0.50;0.30;;;31.90;45.00;;;;;;5146181;27;20480;-81
2023/05/30 10:23:42;;;;;;;0.50;0.30;;;31.70;44.60;;;;;;5143242;27;21296;-83
2023/05/30 10:26:12;;;;;;;0.50;0.40;;;31.50;46.20;;;;;;5133065;27;20507;-81
2023/05/30 10:28:41;;;;;;;0.70;0.70;;;31.30;46.40;;;;;;5142226;27;20862;-81
2023/05/30 10:31:09;;;;;;;0.50;0.30;;;31.30;46.70;;;;;;5138337;27;20532;-82
2023/05/30 10:33:38;;;;;;;0.50;0.40;;;31.60;46.60;;;;;;5143810;27;21170;-82
2023/05/30 10:36:05;;;;;;;0.57;0.50;;;31.80;45.30;;;;;;5137956;27;20464;-81
2023/05/30 10:38:43;;;;;;;1.27;0.83;;;31.60;45.20;;;;;;5151114;27;20440;-82
2023/05/30 10:41:20;;;;;;;0.50;0.40;;;31.00;44.40;;;;;;5145190;27;20471;-82
2023/05/30 10:44:05;;;;;;;0.50;0.40;;;30.30;45.00;;;;;;5134608;27;20472;-81
2023/05/30 10:46:42;;;;;;;0.50;0.30;;;30.30;47.50;;;;;;5145519;27;20488;-79
2023/05/30 10:49:14;;;;;;;0.50;0.30;;;30.30;47.80;;;;;;5149915;27;20468;-82
2023/05/30 10:51:59;;;;;;;0.50;0.30;;;31.00;47.50;;;;;;5144195;27;20532;-82
2023/05/30 10:54:28;;;;;;;0.50;0.30;;;31.80;46.00;;;;;;5134025;27;20516;-82
2023/05/30 10:56:57;;;;;;;0.50;0.30;;;31.80;46.70;;;;;;5147949;27;20451;-83
2023/05/30 10:59:24;;;;;;;0.70;0.40;;;31.80;45.30;;;;;;5147243;27;20447;-82
2023/05/30 11:02:08;;;;;;;1.43;0.90;;;31.90;46.20;;;;;;5144862;27;20797;-81
2023/05/30 11:04:38;;;;;;;5.80;1.07;;;32.10;46.50;;;;;;5146643;27;20475;-79
2023/05/30 11:07:07;;;;;;;0.50;0.30;;;32.30;46.40;;;;;;5148837;27;20820;-81
2023/05/30 11:09:34;;;;;;;0.50;0.30;;;32.10;44.40;;;;;;5142341;27;20528;-81
2023/05/30 11:12:02;;;;;;;0.50;0.30;;;31.70;44.00;;;;;;5148364;27;20440;-79
2023/05/30 11:14:31;;;;;;;0.50;0.40;;;31.50;44.80;;;;;;5137328;27;20512;-81
2023/05/30 11:17:01;;;;;;;0.70;0.50;;;31.00;46.50;;;;;;5135031;27;20467;-81
2023/05/30 11:19:35;;;;;;;0.50;0.33;;;31.10;47.10;;;;;;5132402;27;20536;-80
2023/05/30 11:22:03;;;;;;;1.07;0.97;;;31.00;45.20;;;;;;5132652;27;20442;-82
2023/05/30 11:24:31;;;;;;;0.50;0.30;;;31.00;46.50;;;;;;5131070;27;20828;-82
2023/05/30 11:27:08;;;;;;;0.50;0.30;;;30.80;46.30;;;;;;5128389;27;20965;-81
2023/05/30 11:29:36;;;;;;;1.23;0.63;;;30.50;45.20;;;;;;5130338;27;20941;-80
2023/05/30 11:32:06;;;;;;;0.60;0.40;;;30.30;46.00;;;;;;5131680;27;20516;-81
2023/05/30 11:34:33;;;;;;;0.50;0.30;;;30.20;47.80;;;;;;5130980;27;20438;-81
2023/05/30 11:37:00;;;;;;;0.50;0.30;;;30.60;47.70;;;;;;5127769;27;20534;-81
2023/05/30 11:39:27;;;;;;;0.50;0.40;;;30.70;46.50;;;;;;5127898;27;20465;-81
2023/05/30 11:41:55;;;;;;;0.50;0.30;;;31.40;48.30;;;;;;5131040;27;20532;-81
2023/05/30 11:44:23;;;;;;;0.50;0.30;;;31.80;45.60;;;;;;5131027;27;20437;-83
2023/05/30 11:47:04;;;;;;;0.53;0.50;;;32.30;46.30;;;;;;5118079;27;20837;-81
2023/05/30 11:49:32;;;;;;;0.50;0.30;;;32.30;44.60;;;;;;5128955;27;20487;-82
2023/05/30 11:51:59;;;;;;;4.20;2.20;;;32.20;46.70;;;;;;5131632;27;20448;-82
2023/05/30 11:54:26;;;;;;;0.50;0.30;;;32.30;46.10;;;;;;5130367;27;20766;-81
2023/05/30 11:56:55;;;;;;;0.50;0.40;;;32.00;47.80;;;;;;5128042;27;20466;-81
2023/05/30 11:59:25;;;;;;;0.60;0.47;;;32.50;46.60;;;;;;5134316;27;20435;-81
2023/05/30 12:01:57;;;;;;;0.60;0.50;;;32.40;46.70;;;;;;5128000;27;20470;-80
2023/05/30 12:04:25;;;;;;;0.50;0.40;;;32.40;46.00;;;;;;5132731;27;20454;-80
2023/05/30 12:06:53;;;;;;;0.60;0.50;;;32.30;46.40;;;;;;5120003;27;20458;-81
2023/05/30 12:09:21;;;;;;;0.50;0.50;;;32.40;45.90;;;;;;5136439;27;20526;-80
2023/05/30 12:11:53;;;;;;;8.70;0.60;;;32.20;46.40;;;;;;5135876;27;20426;-81
2023/05/30 12:14:21;;;;;;;0.50;0.30;;;31.50;45.80;;;;;;5136365;27;21004;-81
2023/05/30 12:16:56;;;;;;;0.50;0.30;;;31.90;47.90;;;;;;5135600;27;20448;-81
2023/05/30 12:19:29;;;;;;;0.50;0.30;;;32.50;45.50;;;;;;5138662;27;20433;-81
2023/05/30 12:21:56;;;;;;;0.50;0.40;;;32.10;44.70;;;;;;5124021;27;20438;-79
2023/05/30 12:24:24;;;;;;;0.90;0.90;;;31.90;47.20;;;;;;5133443;27;20469;-80
2023/05/30 12:26:54;;;;;;;0.50;0.30;;;32.00;48.30;;;;;;5131071;27;20472;-80
2023/05/30 12:29:23;;;;;;;0.50;0.30;;;32.10;47.30;;;;;;5134687;27;20534;-80
2023/05/30 12:31:50;;;;;;;0.50;0.30;;;31.80;47.20;;;;;;5125895;27;20492;-81
2023/05/30 12:34:18;;;;;;;0.50;0.40;;;32.30;46.40;;;;;;5133967;27;20525;-83
2023/05/30 12:36:47;;;;;;;0.70;0.70;;;32.10;45.90;;;;;;5146150;27;20457;-82
2023/05/30 12:39:14;;;;;;;0.50;0.40;;;31.70;45.40;;;;;;5139666;27;20441;-79
2023/05/30 12:41:41;;;;;;;0.50;0.30;;;31.20;46.80;;;;;;5137616;27;20437;-80
2023/05/30 12:44:08;;;;;;;1.47;0.63;;;31.10;49.00;;;;;;5133593;27;20441;-81
2023/05/30 12:46:38;;;;;;;0.50;0.30;;;31.70;47.50;;;;;;5139557;27;20497;-80
2023/05/30 12:49:04;;;;;;;0.50;0.30;;;32.40;48.80;;;;;;5135247;27;20449;-80
2023/05/30 12:51:33;;;;;;;0.50;0.30;;;32.90;46.60;;;;;;5135047;27;20462;-77
2023/05/30 12:54:00;;;;;;;0.50;0.40;;;32.80;47.00;;;;;;5122372;27;20434;-79
2023/05/30 12:56:28;;;;;;;0.50;0.30;;;32.10;45.60;;;;;;5128594;27;20544;-76
2023/05/30 12:58:55;;;;;;;0.50;0.30;;;32.30;46.10;;;;;;5122105;27;20437;-77